createdAt,value
2023-03-15T00:00:14.669Z,97551.80
2023-03-15T00:05:38.862Z,97570.59
2023-03-15T00:10:53.301Z,97596.97
2023-03-15T00:16:08.026Z,97616.11
2023-03-15T00:21:43.970Z,97642.16
2023-03-15T00:27:00.132Z,97656.70
2023-03-15T00:32:23.448Z,97659.15
2023-03-15T00:37:25.239Z,97671.14
2023-03-15T00:42:28.245Z,97687.33
2023-03-15T00:48:10.454Z,97709.94
2023-03-15T00:53:32.284Z,97719.46
2023-03-15T00:58:34.280Z,97740.67
2023-03-15T01:03:37.066Z,97748.54
2023-03-15T01:08:53.968Z,97760.52
2023-03-15T01:13:59.884Z,97761.42
2023-03-15T01:19:01.988Z,97769.56
2023-03-15T01:24:03.845Z,97781.80
2023-03-15T01:29:06.470Z,97796.56
2023-03-15T01:34:18.145Z,97805.76
2023-03-15T01:39:20.499Z,97814.59
2023-03-15T01:44:42.172Z,97820.52
2023-03-15T01:50:43.808Z,97822.37
2023-03-15T01:56:06.802Z,97841.29
2023-03-15T02:01:16.021Z,97839.31
2023-03-15T02:06:23.469Z,97835.13
2023-03-15T02:11:39.356Z,97840.04
2023-03-15T02:16:43.639Z,97841.50
2023-03-15T02:21:51.533Z,97843.99
2023-03-15T02:26:55.930Z,97846.23
2023-03-15T02:31:59.899Z,97841.05
2023-03-15T02:37:36.730Z,97851.62
2023-03-15T02:43:08.992Z,97858.38
2023-03-15T02:48:34.793Z,97869.70
2023-03-15T02:53:58.697Z,97883.96
2023-03-15T02:59:23.662Z,97893.49
2023-03-15T03:04:27.685Z,97894.13
2023-03-15T03:09:35.363Z,97902.86
2023-03-15T03:15:13.365Z,97906.97
2023-03-15T03:20:57.031Z,97906.95
2023-03-15T03:27:08.602Z,97905.43
2023-03-15T03:34:08.275Z,97917.19
2023-03-15T03:39:45.982Z,97928.09
2023-03-15T03:44:57.578Z,97927.94
2023-03-15T03:50:05.557Z,97940.46
2023-03-15T03:55:17.562Z,97946.17
2023-03-15T04:00:21.709Z,97964.30
2023-03-15T04:05:26.594Z,97973.85
2023-03-15T04:10:40.078Z,97968.45
2023-03-15T04:16:36.027Z,97970.56
2023-03-15T04:23:19.589Z,97971.25
2023-03-15T04:30:15.874Z,97992.44
2023-03-15T04:36:37.505Z,97995.13
2023-03-15T04:43:51.662Z,97998.56
2023-03-15T04:50:43.418Z,98001.91
2023-03-15T04:57:37.114Z,98015.33
2023-03-15T05:04:35.404Z,98027.41
2023-03-15T05:11:38.073Z,98026.15
2023-03-15T05:18:24.288Z,98027.09
2023-03-15T05:25:08.238Z,98039.85
2023-03-15T05:31:59.590Z,98034.58
2023-03-15T05:38:35.424Z,98039.29
2023-03-15T05:45:51.335Z,98043.99
2023-03-15T05:52:56.627Z,98063.25
2023-03-15T05:59:47.490Z,98070.16
2023-03-15T06:06:06.694Z,98082.29
2023-03-15T06:12:20.602Z,98102.85
2023-03-15T06:18:58.831Z,98119.73
2023-03-15T06:25:21.718Z,98128.48
2023-03-15T06:30:42.057Z,98139.09
2023-03-15T06:36:41.018Z,98144.63
2023-03-15T06:42:46.197Z,98152.56
2023-03-15T06:48:49.995Z,98163.02
2023-03-15T06:55:17.543Z,98176.64
2023-03-15T07:01:37.588Z,98190.71
2023-03-15T07:08:01.543Z,98199.35
2023-03-15T07:15:04.824Z,98205.98
2023-03-15T07:21:40.592Z,98219.07
2023-03-15T07:28:05.877Z,98232.24
2023-03-15T07:35:09.303Z,98231.92
2023-03-15T07:42:05.731Z,98241.06
2023-03-15T07:48:13.514Z,98253.33
2023-03-15T07:54:26.947Z,98259.44
2023-03-15T08:00:45.181Z,98272.80
2023-03-15T08:07:26.190Z,98266.67
2023-03-15T08:14:19.051Z,98268.36
2023-03-15T08:21:21.999Z,98285.73
2023-03-15T08:26:50.693Z,98298.23
2023-03-15T08:32:34.229Z,98305.34
2023-03-15T08:38:26.629Z,98316.77
2023-03-15T08:43:57.189Z,98316.50
2023-03-15T08:49:38.610Z,98319.90
2023-03-15T09:01:29.916Z,98326.25
2023-03-15T09:06:31.561Z,98335.30
2023-03-15T09:11:33.073Z,98339.98
2023-03-15T09:16:34.490Z,98350.80
2023-03-15T09:21:35.922Z,98352.83
2023-03-15T09:26:42.216Z,98356.17
2023-03-15T09:31:43.588Z,98349.24
2023-03-15T09:36:46.825Z,98347.81
2023-03-15T09:41:53.208Z,98345.48
2023-03-15T09:47:16.252Z,98355.33
2023-03-15T09:52:47.363Z,98369.10
2023-03-15T09:57:56.385Z,98369.06
2023-03-15T10:03:01.743Z,98360.19
2023-03-15T10:08:08.609Z,98355.33
2023-03-15T10:13:12.762Z,98351.46
2023-03-15T10:18:30.992Z,98354.98
2023-03-15T10:23:44.238Z,98358.42
2023-03-15T10:28:45.592Z,98366.65
2023-03-15T10:33:48.920Z,98364.77
2023-03-15T10:38:50.552Z,98372.45
2023-03-15T10:44:02.582Z,98382.09
2023-03-15T10:49:14.901Z,98382.36
2023-03-15T10:54:19.049Z,98383.23
2023-03-15T10:59:23.964Z,98385.38
2023-03-15T11:04:26.882Z,98385.66
2023-03-15T11:10:30.529Z,98383.11
2023-03-15T11:16:57.873Z,98393.86
2023-03-15T11:23:19.028Z,98395.11
2023-03-15T11:29:40.071Z,98394.04
2023-03-15T11:36:04.204Z,98397.61
2023-03-15T11:42:31.072Z,98396.11
2023-03-15T11:47:56.194Z,98399.98
2023-03-15T11:53:02.944Z,98404.09
2023-03-15T11:58:42.030Z,98398.07
2023-03-15T12:03:44.490Z,98393.29
2023-03-15T12:08:54.261Z,98400.30
2023-03-15T12:13:58.572Z,98404.77
2023-03-15T12:19:10.243Z,98399.04
2023-03-15T12:24:26.319Z,98401.16
2023-03-15T12:29:29.358Z,98405.73
2023-03-15T12:34:50.448Z,98399.55
2023-03-15T12:40:15.857Z,98404.67
2023-03-15T12:45:17.399Z,98403.34
2023-03-15T12:50:50.265Z,98406.31
2023-03-15T12:55:59.492Z,98411.58
2023-03-15T13:01:06.931Z,98418.70
2023-03-15T13:06:13.487Z,98426.34
2023-03-15T13:11:42.849Z,98430.23
2023-03-15T13:17:01.904Z,98425.73
2023-03-15T13:22:24.784Z,98425.77
2023-03-15T13:28:25.427Z,98427.09
2023-03-15T13:33:29.574Z,98433.42
2023-03-15T13:38:33.347Z,98435.40
2023-03-15T13:43:37.734Z,98444.80
2023-03-15T13:48:43.941Z,98450.52
2023-03-15T13:53:50.212Z,98457.53
2023-03-15T13:58:51.773Z,98467.52
2023-03-15T14:04:05.408Z,98467.73
2023-03-15T14:09:11.126Z,98471.09
2023-03-15T14:14:21.953Z,98477.11
2023-03-15T14:20:23.058Z,98486.48
2023-03-15T14:26:29.979Z,98482.36
2023-03-15T14:31:51.978Z,98478.29
2023-03-15T14:36:57.104Z,98477.47
2023-03-15T14:41:58.507Z,98480.66
2023-03-15T14:47:00.241Z,98475.04
2023-03-15T14:52:04.628Z,98475.74
2023-03-15T14:57:06.089Z,98476.03
2023-03-15T15:02:15.660Z,98472.45
2023-03-15T15:07:17.899Z,98467.36
2023-03-15T15:12:19.507Z,98467.02
2023-03-15T15:17:20.946Z,98468.23
2023-03-15T15:22:23.332Z,98475.67
2023-03-15T15:27:25.489Z,98480.30
2023-03-15T15:32:26.789Z,98483.55
2023-03-15T15:37:28.250Z,98484.71
2023-03-15T15:42:29.662Z,98490.05
2023-03-15T15:47:31.012Z,98490.31
2023-03-15T15:52:32.832Z,98490.20
2023-03-15T15:57:34.157Z,98488.92
2023-03-15T16:02:35.681Z,98492.36
2023-03-15T16:07:39.533Z,98499.64
2023-03-15T16:12:41.502Z,98495.60
2023-03-15T16:17:43.623Z,98491.42
2023-03-15T16:22:50.453Z,98488.09
2023-03-15T16:27:56.226Z,98495.71
2023-03-15T16:32:57.667Z,98508.23
2023-03-15T16:37:59.042Z,98514.52
2023-03-15T16:43:01.586Z,98520.48
2023-03-15T16:48:03.340Z,98528.48
2023-03-15T16:53:07.388Z,98527.35
2023-03-15T16:58:18.094Z,98537.13
2023-03-15T17:03:20.675Z,98540.09
2023-03-15T17:08:23.311Z,98545.95
2023-03-15T17:13:28.129Z,98545.81
2023-03-15T17:18:30.248Z,98550.44
2023-03-15T17:23:31.755Z,98558.23
2023-03-15T17:28:33.045Z,98565.19
2023-03-15T17:33:34.633Z,98573.60
2023-03-15T17:38:38.675Z,98581.02
2023-03-15T17:43:41.677Z,98585.52
2023-03-15T17:49:39.266Z,98584.57
2023-03-15T17:56:15.863Z,98603.86
2023-03-15T18:03:13.719Z,98604.97
2023-03-15T18:10:00.749Z,98608.59
2023-03-15T18:17:04.663Z,98612.55
2023-03-15T18:31:41.882Z,98615.89
2023-03-15T18:38:31.916Z,98619.84
2023-03-15T18:45:26.906Z,98620.20
2023-03-15T18:52:30.249Z,98622.10
2023-03-15T18:59:29.361Z,98628.55
2023-03-15T19:06:32.939Z,98631.45
2023-03-15T19:13:29.108Z,98639.11
2023-03-15T19:20:24.963Z,98646.75
2023-03-15T19:27:32.221Z,98654.39
2023-03-15T19:34:36.241Z,98666.77
2023-03-15T19:41:41.731Z,98684.59
2023-03-15T19:48:44.704Z,98695.44
2023-03-15T19:55:50.075Z,98705.12
2023-03-15T20:02:53.089Z,98712.23
2023-03-15T20:09:56.106Z,98712.89
2023-03-15T20:17:00.191Z,98711.85
2023-03-15T20:23:45.866Z,98718.95
2023-03-15T20:30:29.228Z,98724.37
2023-03-15T20:37:34.823Z,98728.05
2023-03-15T20:44:38.376Z,98732.07
2023-03-15T20:51:43.211Z,98738.99
2023-03-15T20:58:46.781Z,98747.14
2023-03-15T21:05:30.288Z,98755.95
2023-03-15T21:12:33.309Z,98767.96
2023-03-15T21:19:36.821Z,98771.60
2023-03-15T21:26:40.180Z,98775.02
2023-03-15T21:33:35.797Z,98790.95
2023-03-15T21:40:33.594Z,98800.77
2023-03-15T21:47:14.195Z,98802.63
2023-03-15T21:54:15.904Z,98809.39
2023-03-15T22:01:15.627Z,98811.91
2023-03-15T22:08:23.675Z,98817.77
2023-03-15T22:15:26.890Z,98823.37
2023-03-15T22:22:29.774Z,98833.30
2023-03-15T22:29:16.450Z,98833.94
2023-03-15T22:36:11.558Z,98838.53
2023-03-15T22:42:50.723Z,98845.30
2023-03-15T22:49:53.623Z,98846.80
2023-03-15T22:56:57.296Z,98851.90
2023-03-15T23:03:35.716Z,98858.27
2023-03-15T23:10:41.589Z,98862.93
2023-03-15T23:17:35.304Z,98873.95
2023-03-15T23:24:19.141Z,98878.55
2023-03-15T23:31:14.992Z,98886.80
2023-03-15T23:38:11.216Z,98884.52
2023-03-15T23:45:14.833Z,98894.47
2023-03-15T23:52:17.704Z,98902.83
2023-03-15T23:59:20.628Z,98904.45
